sensor_id;sensor_type;location;lat;lon;timestamp;temperature;humidity
30186;DHT22;31152;49.190;8.122;2023-05-16T00:02:20;14.20;99.90
30186;DHT22;31152;49.190;8.122;2023-05-16T00:04:47;14.10;99.90
30186;DHT22;31152;49.190;8.122;2023-05-16T00:07:14;14.10;99.90
30186;DHT22;31152;49.190;8.122;2023-05-16T00:09:41;14.10;99.90
30186;DHT22;31152;49.190;8.122;2023-05-16T00:12:08;14.10;99.90
30186;DHT22;31152;49.190;8.122;2023-05-16T00:14:35;14.10;99.90
30186;DHT22;31152;49.190;8.122;2023-05-16T00:17:02;14.10;99.90
30186;DHT22;31152;49.190;8.122;2023-05-16T00:19:37;14.00;99.90
30186;DHT22;31152;49.190;8.122;2023-05-16T00:22:07;14.00;99.90
30186;DHT22;31152;49.190;8.122;2023-05-16T00:24:34;14.00;99.90
30186;DHT22;31152;49.190;8.122;2023-05-16T00:27:01;14.00;99.90
30186;DHT22;31152;49.190;8.122;2023-05-16T00:29:33;14.00;99.90
30186;DHT22;31152;49.190;8.122;2023-05-16T00:32:03;14.00;99.90
30186;DHT22;31152;49.190;8.122;2023-05-16T00:34:37;14.00;99.90
30186;DHT22;31152;49.190;8.122;2023-05-16T00:37:04;13.90;99.90
30186;DHT22;31152;49.190;8.122;2023-05-16T00:39:30;13.90;99.90
30186;DHT22;31152;49.190;8.122;2023-05-16T00:41:57;13.90;99.90
30186;DHT22;31152;49.190;8.122;2023-05-16T00:44:24;13.90;99.90
30186;DHT22;31152;49.190;8.122;2023-05-16T00:46:53;13.80;99.90
30186;DHT22;31152;49.190;8.122;2023-05-16T00:49:22;13.80;99.90
30186;DHT22;31152;49.190;8.122;2023-05-16T00:51:55;13.80;99.90
30186;DHT22;31152;49.190;8.122;2023-05-16T00:54:22;13.80;99.90
30186;DHT22;31152;49.190;8.122;2023-05-16T00:56:52;13.80;99.90
30186;DHT22;31152;49.190;8.122;2023-05-16T00:59:22;13.80;99.90
30186;DHT22;31152;49.190;8.122;2023-05-16T01:01:52;13.80;99.90
30186;DHT22;31152;49.190;8.122;2023-05-16T01:04:20;13.80;99.90
30186;DHT22;31152;49.190;8.122;2023-05-16T01:06:47;13.80;99.90
30186;DHT22;31152;49.190;8.122;2023-05-16T01:09:16;13.80;99.90
30186;DHT22;31152;49.190;8.122;2023-05-16T01:11:55;13.80;99.90
30186;DHT22;31152;49.190;8.122;2023-05-16T01:14:45;13.80;99.90
30186;DHT22;31152;49.190;8.122;2023-05-16T01:17:37;13.70;99.90
30186;DHT22;31152;49.190;8.122;2023-05-16T01:20:44;13.70;99.90
30186;DHT22;31152;49.190;8.122;2023-05-16T01:23:38;13.70;99.90
30186;DHT22;31152;49.190;8.122;2023-05-16T01:26:26;13.60;99.90
30186;DHT22;31152;49.190;8.122;2023-05-16T01:28:55;13.60;99.90
30186;DHT22;31152;49.190;8.122;2023-05-16T01:31:30;13.50;99.90
30186;DHT22;31152;49.190;8.122;2023-05-16T01:33:57;13.50;99.90
30186;DHT22;31152;49.190;8.122;2023-05-16T01:42:00;13.40;99.90
30186;DHT22;31152;49.190;8.122;2023-05-16T01:44:44;13.40;99.90
30186;DHT22;31152;49.190;8.122;2023-05-16T01:47:13;13.30;99.90
30186;DHT22;31152;49.190;8.122;2023-05-16T01:52:40;13.30;99.90
30186;DHT22;31152;49.190;8.122;2023-05-16T01:55:15;13.20;99.90
30186;DHT22;31152;49.190;8.122;2023-05-16T01:57:44;13.20;99.90
30186;DHT22;31152;49.190;8.122;2023-05-16T02:00:20;13.20;99.90
30186;DHT22;31152;49.190;8.122;2023-05-16T02:02:47;13.20;99.90
30186;DHT22;31152;49.190;8.122;2023-05-16T02:05:16;13.20;99.90
30186;DHT22;31152;49.190;8.122;2023-05-16T02:07:46;13.20;99.90
30186;DHT22;31152;49.190;8.122;2023-05-16T02:10:16;13.20;99.90
30186;DHT22;31152;49.190;8.122;2023-05-16T02:12:49;13.20;99.90
30186;DHT22;31152;49.190;8.122;2023-05-16T02:15:18;13.20;99.90
30186;DHT22;31152;49.190;8.122;2023-05-16T02:17:45;13.20;99.90
30186;DHT22;31152;49.190;8.122;2023-05-16T02:20:12;13.20;99.90
30186;DHT22;31152;49.190;8.122;2023-05-16T02:22:43;13.20;99.90
30186;DHT22;31152;49.190;8.122;2023-05-16T02:25:13;13.20;99.90
30186;DHT22;31152;49.190;8.122;2023-05-16T02:27:42;13.20;99.90
30186;DHT22;31152;49.190;8.122;2023-05-16T02:30:15;13.10;99.90
30186;DHT22;31152;49.190;8.122;2023-05-16T02:32:44;13.10;99.90
30186;DHT22;31152;49.190;8.122;2023-05-16T02:35:14;13.10;99.90
30186;DHT22;31152;49.190;8.122;2023-05-16T02:37:43;13.10;99.90
30186;DHT22;31152;49.190;8.122;2023-05-16T02:40:10;13.00;99.90
30186;DHT22;31152;49.190;8.122;2023-05-16T02:42:36;13.10;99.90
30186;DHT22;31152;49.190;8.122;2023-05-16T02:45:06;13.00;99.90
30186;DHT22;31152;49.190;8.122;2023-05-16T02:47:38;13.00;99.90
30186;DHT22;31152;49.190;8.122;2023-05-16T02:50:06;13.00;99.90
30186;DHT22;31152;49.190;8.122;2023-05-16T02:52:35;13.00;99.90
30186;DHT22;31152;49.190;8.122;2023-05-16T02:55:06;12.90;99.90
30186;DHT22;31152;49.190;8.122;2023-05-16T02:57:36;12.90;99.90
30186;DHT22;31152;49.190;8.122;2023-05-16T03:00:05;12.90;99.90
30186;DHT22;31152;49.190;8.122;2023-05-16T03:02:32;12.90;99.90
30186;DHT22;31152;49.190;8.122;2023-05-16T03:05:01;12.90;99.90
30186;DHT22;31152;49.190;8.122;2023-05-16T03:07:35;12.80;99.90
30186;DHT22;31152;49.190;8.122;2023-05-16T03:10:03;12.80;99.90
30186;DHT22;31152;49.190;8.122;2023-05-16T03:12:31;12.70;99.90
30186;DHT22;31152;49.190;8.122;2023-05-16T03:14:57;12.70;99.90
30186;DHT22;31152;49.190;8.122;2023-05-16T03:17:26;12.60;99.90
30186;DHT22;31152;49.190;8.122;2023-05-16T03:19:57;12.60;99.90
30186;DHT22;31152;49.190;8.122;2023-05-16T03:22:26;12.60;99.90
30186;DHT22;31152;49.190;8.122;2023-05-16T03:24:53;12.60;99.90
30186;DHT22;31152;49.190;8.122;2023-05-16T03:27:21;12.60;99.90
30186;DHT22;31152;49.190;8.122;2023-05-16T03:29:48;12.60;99.90
30186;DHT22;31152;49.190;8.122;2023-05-16T03:32:14;12.60;99.90
30186;DHT22;31152;49.190;8.122;2023-05-16T03:34:41;12.60;99.90
30186;DHT22;31152;49.190;8.122;2023-05-16T03:37:08;12.60;99.90
30186;DHT22;31152;49.190;8.122;2023-05-16T03:39:40;12.50;99.90
30186;DHT22;31152;49.190;8.122;2023-05-16T03:42:10;12.50;99.90
30186;DHT22;31152;49.190;8.122;2023-05-16T03:44:37;12.50;99.90
30186;DHT22;31152;49.190;8.122;2023-05-16T03:47:04;12.50;99.90
30186;DHT22;31152;49.190;8.122;2023-05-16T03:49:31;12.50;99.90
30186;DHT22;31152;49.190;8.122;2023-05-16T03:52:02;12.40;99.90
30186;DHT22;31152;49.190;8.122;2023-05-16T03:54:29;12.40;99.90
30186;DHT22;31152;49.190;8.122;2023-05-16T03:56:56;12.40;99.90
30186;DHT22;31152;49.190;8.122;2023-05-16T03:59:23;12.40;99.90
30186;DHT22;31152;49.190;8.122;2023-05-16T04:01:49;12.40;99.90
30186;DHT22;31152;49.190;8.122;2023-05-16T04:04:16;12.40;99.90
30186;DHT22;31152;49.190;8.122;2023-05-16T04:06:45;12.40;99.90
30186;DHT22;31152;49.190;8.122;2023-05-16T04:09:14;12.50;99.90
30186;DHT22;31152;49.190;8.122;2023-05-16T04:11:43;12.50;99.90
30186;DHT22;31152;49.190;8.122;2023-05-16T04:14:10;12.40;99.90
30186;DHT22;31152;49.190;8.122;2023-05-16T04:16:36;12.40;99.90
30186;DHT22;31152;49.190;8.122;2023-05-16T04:19:03;12.50;99.90
30186;DHT22;31152;49.190;8.122;2023-05-16T04:21:33;12.50;99.90
30186;DHT22;31152;49.190;8.122;2023-05-16T04:24:04;12.50;99.90
30186;DHT22;31152;49.190;8.122;2023-05-16T04:26:35;12.60;99.90
30186;DHT22;31152;49.190;8.122;2023-05-16T04:29:03;12.50;99.90
30186;DHT22;31152;49.190;8.122;2023-05-16T04:31:40;12.60;99.90
30186;DHT22;31152;49.190;8.122;2023-05-16T04:34:10;12.70;99.90
30186;DHT22;31152;49.190;8.122;2023-05-16T04:36:37;12.80;99.90
30186;DHT22;31152;49.190;8.122;2023-05-16T04:39:04;12.80;99.90
30186;DHT22;31152;49.190;8.122;2023-05-16T04:41:31;12.90;99.90
30186;DHT22;31152;49.190;8.122;2023-05-16T04:44:04;13.00;99.90
30186;DHT22;31152;49.190;8.122;2023-05-16T04:46:31;13.00;99.90
30186;DHT22;31152;49.190;8.122;2023-05-16T04:48:58;13.10;99.90
30186;DHT22;31152;49.190;8.122;2023-05-16T04:51:28;13.20;99.90
30186;DHT22;31152;49.190;8.122;2023-05-16T04:53:54;13.30;99.90
30186;DHT22;31152;49.190;8.122;2023-05-16T04:56:21;13.30;99.90
30186;DHT22;31152;49.190;8.122;2023-05-16T04:58:51;13.40;99.90
30186;DHT22;31152;49.190;8.122;2023-05-16T05:01:18;13.40;99.90
30186;DHT22;31152;49.190;8.122;2023-05-16T05:03:44;13.50;99.90
30186;DHT22;31152;49.190;8.122;2023-05-16T05:06:13;13.50;99.90
30186;DHT22;31152;49.190;8.122;2023-05-16T05:08:40;13.60;99.90
30186;DHT22;31152;49.190;8.122;2023-05-16T05:11:07;13.60;99.90
30186;DHT22;31152;49.190;8.122;2023-05-16T05:13:34;13.70;99.90
30186;DHT22;31152;49.190;8.122;2023-05-16T05:16:00;13.70;99.90
30186;DHT22;31152;49.190;8.122;2023-05-16T05:18:33;13.80;99.90
30186;DHT22;31152;49.190;8.122;2023-05-16T05:21:00;13.80;99.90
30186;DHT22;31152;49.190;8.122;2023-05-16T05:23:27;13.80;99.90
30186;DHT22;31152;49.190;8.122;2023-05-16T05:25:56;13.80;99.90
30186;DHT22;31152;49.190;8.122;2023-05-16T05:28:26;13.90;99.90
30186;DHT22;31152;49.190;8.122;2023-05-16T05:30:55;13.90;99.90
30186;DHT22;31152;49.190;8.122;2023-05-16T05:33:27;13.90;99.90
30186;DHT22;31152;49.190;8.122;2023-05-16T05:35:55;13.90;99.90
30186;DHT22;31152;49.190;8.122;2023-05-16T05:38:22;14.00;99.90
30186;DHT22;31152;49.190;8.122;2023-05-16T05:40:48;14.00;99.90
30186;DHT22;31152;49.190;8.122;2023-05-16T05:43:17;14.10;99.90
30186;DHT22;31152;49.190;8.122;2023-05-16T05:45:44;14.20;99.90
30186;DHT22;31152;49.190;8.122;2023-05-16T05:48:15;14.10;99.90
30186;DHT22;31152;49.190;8.122;2023-05-16T05:50:42;14.10;99.90
30186;DHT22;31152;49.190;8.122;2023-05-16T05:53:08;14.00;99.90
30186;DHT22;31152;49.190;8.122;2023-05-16T05:55:35;14.00;99.90
30186;DHT22;31152;49.190;8.122;2023-05-16T05:58:02;14.00;99.90
30186;DHT22;31152;49.190;8.122;2023-05-16T06:00:32;14.00;99.90
30186;DHT22;31152;49.190;8.122;2023-05-16T06:02:59;14.00;99.90
30186;DHT22;31152;49.190;8.122;2023-05-16T06:05:26;14.00;99.90
30186;DHT22;31152;49.190;8.122;2023-05-16T06:07:53;14.00;99.90
30186;DHT22;31152;49.190;8.122;2023-05-16T06:10:20;14.00;99.90
30186;DHT22;31152;49.190;8.122;2023-05-16T06:12:49;14.00;99.90
30186;DHT22;31152;49.190;8.122;2023-05-16T06:15:16;14.00;99.90
30186;DHT22;31152;49.190;8.122;2023-05-16T06:17:42;14.00;99.90
30186;DHT22;31152;49.190;8.122;2023-05-16T06:20:10;14.10;99.90
30186;DHT22;31152;49.190;8.122;2023-05-16T06:22:39;14.10;99.90
30186;DHT22;31152;49.190;8.122;2023-05-16T06:25:06;14.10;99.90
30186;DHT22;31152;49.190;8.122;2023-05-16T06:27:33;14.10;99.90
30186;DHT22;31152;49.190;8.122;2023-05-16T06:29:59;14.00;99.90
30186;DHT22;31152;49.190;8.122;2023-05-16T06:32:34;14.10;99.90
30186;DHT22;31152;49.190;8.122;2023-05-16T06:35:03;14.00;99.90
30186;DHT22;31152;49.190;8.122;2023-05-16T06:37:34;13.90;99.90
30186;DHT22;31152;49.190;8.122;2023-05-16T06:40:05;13.90;99.90
30186;DHT22;31152;49.190;8.122;2023-05-16T06:42:32;13.90;99.90
30186;DHT22;31152;49.190;8.122;2023-05-16T06:44:59;13.90;99.90
30186;DHT22;31152;49.190;8.122;2023-05-16T06:47:30;13.90;99.90
30186;DHT22;31152;49.190;8.122;2023-05-16T06:50:01;13.90;99.90
30186;DHT22;31152;49.190;8.122;2023-05-16T06:52:29;13.80;99.90
30186;DHT22;31152;49.190;8.122;2023-05-16T06:54:58;13.80;99.90
30186;DHT22;31152;49.190;8.122;2023-05-16T06:57:25;13.80;99.90
30186;DHT22;31152;49.190;8.122;2023-05-16T06:59:52;13.80;99.90
30186;DHT22;31152;49.190;8.122;2023-05-16T07:02:19;13.80;99.90
30186;DHT22;31152;49.190;8.122;2023-05-16T07:04:46;13.90;99.90
30186;DHT22;31152;49.190;8.122;2023-05-16T07:07:13;13.90;99.90
30186;DHT22;31152;49.190;8.122;2023-05-16T07:09:42;13.90;99.90
30186;DHT22;31152;49.190;8.122;2023-05-16T07:12:09;13.90;99.90
30186;DHT22;31152;49.190;8.122;2023-05-16T07:14:38;14.00;99.90
30186;DHT22;31152;49.190;8.122;2023-05-16T07:17:06;14.00;99.90
30186;DHT22;31152;49.190;8.122;2023-05-16T07:19:33;14.00;99.90
30186;DHT22;31152;49.190;8.122;2023-05-16T07:22:14;14.00;99.90
30186;DHT22;31152;49.190;8.122;2023-05-16T07:24:48;14.10;99.90
30186;DHT22;31152;49.190;8.122;2023-05-16T07:27:15;14.10;99.90
30186;DHT22;31152;49.190;8.122;2023-05-16T07:29:49;14.10;99.90
30186;DHT22;31152;49.190;8.122;2023-05-16T07:32:17;14.10;99.90
30186;DHT22;31152;49.190;8.122;2023-05-16T07:34:44;14.10;99.90
30186;DHT22;31152;49.190;8.122;2023-05-16T07:37:15;14.10;99.90
30186;DHT22;31152;49.190;8.122;2023-05-16T07:39:41;14.20;99.90
30186;DHT22;31152;49.190;8.122;2023-05-16T07:42:08;14.20;99.90
30186;DHT22;31152;49.190;8.122;2023-05-16T07:44:35;14.20;99.90
30186;DHT22;31152;49.190;8.122;2023-05-16T07:47:02;14.10;99.90
30186;DHT22;31152;49.190;8.122;2023-05-16T07:49:29;14.00;99.90
30186;DHT22;31152;49.190;8.122;2023-05-16T07:51:56;14.00;99.90
30186;DHT22;31152;49.190;8.122;2023-05-16T07:54:46;14.00;99.90
30186;DHT22;31152;49.190;8.122;2023-05-16T07:57:16;14.00;99.90
30186;DHT22;31152;49.190;8.122;2023-05-16T07:59:43;14.10;99.90
30186;DHT22;31152;49.190;8.122;2023-05-16T08:02:13;14.10;99.90
30186;DHT22;31152;49.190;8.122;2023-05-16T08:04:40;14.10;99.90
30186;DHT22;31152;49.190;8.122;2023-05-16T08:07:07;14.10;99.90
30186;DHT22;31152;49.190;8.122;2023-05-16T08:09:36;14.10;99.90
30186;DHT22;31152;49.190;8.122;2023-05-16T08:12:09;14.00;99.90
30186;DHT22;31152;49.190;8.122;2023-05-16T08:14:38;14.10;99.90
30186;DHT22;31152;49.190;8.122;2023-05-16T08:17:05;14.00;99.90
30186;DHT22;31152;49.190;8.122;2023-05-16T08:19:34;14.00;99.90
30186;DHT22;31152;49.190;8.122;2023-05-16T08:22:06;14.10;99.90
30186;DHT22;31152;49.190;8.122;2023-05-16T08:24:34;14.20;99.90
30186;DHT22;31152;49.190;8.122;2023-05-16T08:27:01;14.30;99.90
30186;DHT22;31152;49.190;8.122;2023-05-16T08:29:28;14.40;99.90
30186;DHT22;31152;49.190;8.122;2023-05-16T08:31:55;14.60;99.90
30186;DHT22;31152;49.190;8.122;2023-05-16T08:34:25;14.80;99.90
30186;DHT22;31152;49.190;8.122;2023-05-16T08:36:52;15.00;99.90
30186;DHT22;31152;49.190;8.122;2023-05-16T08:39:20;15.20;99.90
30186;DHT22;31152;49.190;8.122;2023-05-16T08:41:47;15.30;99.90
30186;DHT22;31152;49.190;8.122;2023-05-16T08:44:15;15.30;99.90
30186;DHT22;31152;49.190;8.122;2023-05-16T08:46:51;15.40;99.90
30186;DHT22;31152;49.190;8.122;2023-05-16T08:49:20;15.40;99.90
30186;DHT22;31152;49.190;8.122;2023-05-16T08:51:51;15.20;99.90
30186;DHT22;31152;49.190;8.122;2023-05-16T08:54:22;15.20;99.90
30186;DHT22;31152;49.190;8.122;2023-05-16T08:56:56;15.20;99.90
30186;DHT22;31152;49.190;8.122;2023-05-16T08:59:26;15.10;99.90
30186;DHT22;31152;49.190;8.122;2023-05-16T09:01:54;14.90;99.90
30186;DHT22;31152;49.190;8.122;2023-05-16T09:04:21;14.90;99.90
30186;DHT22;31152;49.190;8.122;2023-05-16T09:06:52;14.80;99.90
30186;DHT22;31152;49.190;8.122;2023-05-16T09:09:23;14.70;99.90
30186;DHT22;31152;49.190;8.122;2023-05-16T09:11:49;14.60;99.90
30186;DHT22;31152;49.190;8.122;2023-05-16T09:14:18;14.50;99.90
30186;DHT22;31152;49.190;8.122;2023-05-16T09:17:08;14.50;99.90
30186;DHT22;31152;49.190;8.122;2023-05-16T09:19:39;14.30;99.90
30186;DHT22;31152;49.190;8.122;2023-05-16T09:22:11;14.20;99.90
30186;DHT22;31152;49.190;8.122;2023-05-16T09:24:40;14.20;99.90
30186;DHT22;31152;49.190;8.122;2023-05-16T09:27:08;14.20;99.90
30186;DHT22;31152;49.190;8.122;2023-05-16T09:29:36;14.30;99.90
30186;DHT22;31152;49.190;8.122;2023-05-16T09:32:13;14.30;99.90
30186;DHT22;31152;49.190;8.122;2023-05-16T09:34:45;14.40;99.90
30186;DHT22;31152;49.190;8.122;2023-05-16T09:37:15;14.40;99.90
30186;DHT22;31152;49.190;8.122;2023-05-16T09:39:52;14.50;99.90
30186;DHT22;31152;49.190;8.122;2023-05-16T09:42:20;14.50;99.90
30186;DHT22;31152;49.190;8.122;2023-05-16T09:44:53;14.70;99.90
30186;DHT22;31152;49.190;8.122;2023-05-16T09:47:21;14.90;99.90
30186;DHT22;31152;49.190;8.122;2023-05-16T09:49:51;15.00;99.90
30186;DHT22;31152;49.190;8.122;2023-05-16T09:52:19;15.10;99.90
30186;DHT22;31152;49.190;8.122;2023-05-16T09:54:47;15.20;99.90
30186;DHT22;31152;49.190;8.122;2023-05-16T09:57:20;15.30;99.90
30186;DHT22;31152;49.190;8.122;2023-05-16T09:59:52;15.30;99.90
30186;DHT22;31152;49.190;8.122;2023-05-16T10:02:19;15.20;99.90
30186;DHT22;31152;49.190;8.122;2023-05-16T10:04:46;15.10;99.90
30186;DHT22;31152;49.190;8.122;2023-05-16T10:07:15;15.00;99.90
30186;DHT22;31152;49.190;8.122;2023-05-16T10:09:42;15.00;99.90
30186;DHT22;31152;49.190;8.122;2023-05-16T10:12:12;14.90;99.90
30186;DHT22;31152;49.190;8.122;2023-05-16T10:14:41;14.70;99.90
30186;DHT22;31152;49.190;8.122;2023-05-16T10:17:13;14.50;99.90
30186;DHT22;31152;49.190;8.122;2023-05-16T10:19:42;14.60;99.90
30186;DHT22;31152;49.190;8.122;2023-05-16T10:22:09;14.50;99.90
30186;DHT22;31152;49.190;8.122;2023-05-16T10:24:51;14.30;99.90
30186;DHT22;31152;49.190;8.122;2023-05-16T10:27:19;14.20;99.90
30186;DHT22;31152;49.190;8.122;2023-05-16T10:29:48;14.10;99.90
30186;DHT22;31152;49.190;8.122;2023-05-16T10:32:22;14.10;99.90
30186;DHT22;31152;49.190;8.122;2023-05-16T10:34:49;14.20;99.90
30186;DHT22;31152;49.190;8.122;2023-05-16T10:37:17;14.20;99.90
30186;DHT22;31152;49.190;8.122;2023-05-16T10:39:44;14.10;99.90
30186;DHT22;31152;49.190;8.122;2023-05-16T10:42:11;14.00;99.90
30186;DHT22;31152;49.190;8.122;2023-05-16T10:44:45;14.00;99.90
30186;DHT22;31152;49.190;8.122;2023-05-16T10:47:30;13.80;99.90
30186;DHT22;31152;49.190;8.122;2023-05-16T10:49:57;13.80;99.90
30186;DHT22;31152;49.190;8.122;2023-05-16T10:52:32;13.80;99.90
30186;DHT22;31152;49.190;8.122;2023-05-16T10:55:02;13.80;99.90
30186;DHT22;31152;49.190;8.122;2023-05-16T10:57:32;13.70;99.90
30186;DHT22;31152;49.190;8.122;2023-05-16T10:59:58;13.80;99.90
30186;DHT22;31152;49.190;8.122;2023-05-16T11:02:31;13.70;99.90
30186;DHT22;31152;49.190;8.122;2023-05-16T11:05:00;13.70;99.90
30186;DHT22;31152;49.190;8.122;2023-05-16T11:07:33;13.80;99.90
30186;DHT22;31152;49.190;8.122;2023-05-16T11:10:14;13.70;99.90
30186;DHT22;31152;49.190;8.122;2023-05-16T11:12:48;13.70;99.90
30186;DHT22;31152;49.190;8.122;2023-05-16T11:15:22;13.80;99.90
30186;DHT22;31152;49.190;8.122;2023-05-16T11:18:04;13.80;99.90
30186;DHT22;31152;49.190;8.122;2023-05-16T11:20:34;13.80;99.90
30186;DHT22;31152;49.190;8.122;2023-05-16T11:23:21;13.80;99.90
30186;DHT22;31152;49.190;8.122;2023-05-16T11:25:55;13.90;99.90
30186;DHT22;31152;49.190;8.122;2023-05-16T11:28:26;13.90;99.90
30186;DHT22;31152;49.190;8.122;2023-05-16T11:30:56;14.00;99.90
30186;DHT22;31152;49.190;8.122;2023-05-16T11:33:24;14.00;99.90
30186;DHT22;31152;49.190;8.122;2023-05-16T11:38:41;13.90;99.90
30186;DHT22;31152;49.190;8.122;2023-05-16T11:41:10;13.90;99.90
30186;DHT22;31152;49.190;8.122;2023-05-16T11:43:43;13.90;99.90
30186;DHT22;31152;49.190;8.122;2023-05-16T11:46:14;13.90;99.90
30186;DHT22;31152;49.190;8.122;2023-05-16T11:48:43;14.00;99.90
30186;DHT22;31152;49.190;8.122;2023-05-16T11:51:17;14.00;99.90
30186;DHT22;31152;49.190;8.122;2023-05-16T11:53:46;13.80;99.90
30186;DHT22;31152;49.190;8.122;2023-05-16T11:56:15;13.90;99.90
30186;DHT22;31152;49.190;8.122;2023-05-16T11:58:44;13.90;99.90
30186;DHT22;31152;49.190;8.122;2023-05-16T12:01:11;13.90;99.90
30186;DHT22;31152;49.190;8.122;2023-05-16T12:03:41;13.90;99.90
30186;DHT22;31152;49.190;8.122;2023-05-16T12:06:10;13.90;99.90
30186;DHT22;31152;49.190;8.122;2023-05-16T12:08:37;13.90;99.90
30186;DHT22;31152;49.190;8.122;2023-05-16T12:11:06;13.90;99.90
30186;DHT22;31152;49.190;8.122;2023-05-16T12:13:38;13.80;99.90
30186;DHT22;31152;49.190;8.122;2023-05-16T12:16:05;13.80;99.90
30186;DHT22;31152;49.190;8.122;2023-05-16T12:18:33;13.90;99.90
30186;DHT22;31152;49.190;8.122;2023-05-16T12:21:00;13.90;99.90
30186;DHT22;31152;49.190;8.122;2023-05-16T12:23:32;13.90;99.90
30186;DHT22;31152;49.190;8.122;2023-05-16T12:26:01;14.00;99.90
30186;DHT22;31152;49.190;8.122;2023-05-16T12:28:33;13.90;99.90
30186;DHT22;31152;49.190;8.122;2023-05-16T12:31:10;13.70;99.90
30186;DHT22;31152;49.190;8.122;2023-05-16T12:34:02;13.60;99.90
30186;DHT22;31152;49.190;8.122;2023-05-16T12:36:34;13.60;99.90
30186;DHT22;31152;49.190;8.122;2023-05-16T12:39:11;13.40;99.90
30186;DHT22;31152;49.190;8.122;2023-05-16T12:41:41;13.40;99.90
30186;DHT22;31152;49.190;8.122;2023-05-16T12:44:17;13.40;99.90
30186;DHT22;31152;49.190;8.122;2023-05-16T12:46:51;13.40;99.90
30186;DHT22;31152;49.190;8.122;2023-05-16T12:49:21;13.40;99.90
30186;DHT22;31152;49.190;8.122;2023-05-16T12:51:52;13.40;99.90
30186;DHT22;31152;49.190;8.122;2023-05-16T12:54:19;13.30;99.90
30186;DHT22;31152;49.190;8.122;2023-05-16T12:56:48;13.30;99.90
30186;DHT22;31152;49.190;8.122;2023-05-16T12:59:15;13.20;99.90
30186;DHT22;31152;49.190;8.122;2023-05-16T13:01:42;13.30;99.90
30186;DHT22;31152;49.190;8.122;2023-05-16T13:04:11;13.30;99.90
30186;DHT22;31152;49.190;8.122;2023-05-16T13:06:44;13.30;99.90
30186;DHT22;31152;49.190;8.122;2023-05-16T13:09:25;13.30;99.90
30186;DHT22;31152;49.190;8.122;2023-05-16T13:11:58;13.40;99.90
30186;DHT22;31152;49.190;8.122;2023-05-16T13:14:26;13.40;99.90
30186;DHT22;31152;49.190;8.122;2023-05-16T13:16:53;13.50;99.90
30186;DHT22;31152;49.190;8.122;2023-05-16T13:19:20;13.60;99.90
30186;DHT22;31152;49.190;8.122;2023-05-16T13:21:49;13.60;99.90
30186;DHT22;31152;49.190;8.122;2023-05-16T13:24:16;13.70;99.90
30186;DHT22;31152;49.190;8.122;2023-05-16T13:26:42;13.80;99.90
30186;DHT22;31152;49.190;8.122;2023-05-16T13:29:09;13.90;99.70
30186;DHT22;31152;49.190;8.122;2023-05-16T13:31:37;14.10;99.70
30186;DHT22;31152;49.190;8.122;2023-05-16T13:34:04;14.20;99.30
30186;DHT22;31152;49.190;8.122;2023-05-16T13:36:32;14.30;98.90
30186;DHT22;31152;49.190;8.122;2023-05-16T13:39:18;14.40;98.80
30186;DHT22;31152;49.190;8.122;2023-05-16T13:41:45;14.60;98.60
30186;DHT22;31152;49.190;8.122;2023-05-16T13:44:15;14.70;98.30
30186;DHT22;31152;49.190;8.122;2023-05-16T13:46:42;14.80;98.10
30186;DHT22;31152;49.190;8.122;2023-05-16T13:49:09;14.90;98.20
30186;DHT22;31152;49.190;8.122;2023-05-16T13:51:36;15.10;98.30
30186;DHT22;31152;49.190;8.122;2023-05-16T13:54:04;15.20;98.20
30186;DHT22;31152;49.190;8.122;2023-05-16T13:56:31;15.10;98.20
30186;DHT22;31152;49.190;8.122;2023-05-16T13:58:58;15.20;97.80
30186;DHT22;31152;49.190;8.122;2023-05-16T14:01:32;15.20;97.90
30186;DHT22;31152;49.190;8.122;2023-05-16T14:04:00;15.30;97.60
30186;DHT22;31152;49.190;8.122;2023-05-16T14:06:27;15.40;97.70
30186;DHT22;31152;49.190;8.122;2023-05-16T14:08:56;15.40;97.30
30186;DHT22;31152;49.190;8.122;2023-05-16T14:11:23;15.60;97.30
30186;DHT22;31152;49.190;8.122;2023-05-16T14:13:55;15.70;97.30
30186;DHT22;31152;49.190;8.122;2023-05-16T14:16:22;15.80;97.30
30186;DHT22;31152;49.190;8.122;2023-05-16T14:18:49;15.90;97.50
30186;DHT22;31152;49.190;8.122;2023-05-16T14:21:17;15.90;97.50
30186;DHT22;31152;49.190;8.122;2023-05-16T14:23:43;16.10;96.80
30186;DHT22;31152;49.190;8.122;2023-05-16T14:26:10;16.30;96.90
30186;DHT22;31152;49.190;8.122;2023-05-16T14:28:37;16.60;96.80
30186;DHT22;31152;49.190;8.122;2023-05-16T14:31:04;16.70;96.80
30186;DHT22;31152;49.190;8.122;2023-05-16T14:33:32;17.10;96.70
30186;DHT22;31152;49.190;8.122;2023-05-16T14:35:59;17.30;96.10
30186;DHT22;31152;49.190;8.122;2023-05-16T14:38:26;17.50;95.20
30186;DHT22;31152;49.190;8.122;2023-05-16T14:40:53;17.80;94.70
30186;DHT22;31152;49.190;8.122;2023-05-16T14:43:22;18.00;93.70
30186;DHT22;31152;49.190;8.122;2023-05-16T14:45:49;18.20;93.50
30186;DHT22;31152;49.190;8.122;2023-05-16T14:48:18;18.30;93.60
30186;DHT22;31152;49.190;8.122;2023-05-16T14:50:45;18.30;91.80
30186;DHT22;31152;49.190;8.122;2023-05-16T14:53:15;18.10;92.30
30186;DHT22;31152;49.190;8.122;2023-05-16T14:55:45;18.10;91.30
30186;DHT22;31152;49.190;8.122;2023-05-16T14:58:14;18.00;90.80
30186;DHT22;31152;49.190;8.122;2023-05-16T15:00:42;17.80;91.00
30186;DHT22;31152;49.190;8.122;2023-05-16T15:03:10;17.80;91.20
30186;DHT22;31152;49.190;8.122;2023-05-16T15:05:39;17.70;90.90
30186;DHT22;31152;49.190;8.122;2023-05-16T15:08:17;17.70;90.90
30186;DHT22;31152;49.190;8.122;2023-05-16T15:10:44;17.70;91.50
30186;DHT22;31152;49.190;8.122;2023-05-16T15:13:11;17.80;91.50
30186;DHT22;31152;49.190;8.122;2023-05-16T15:15:38;18.00;91.20
30186;DHT22;31152;49.190;8.122;2023-05-16T15:18:11;18.00;89.50
30186;DHT22;31152;49.190;8.122;2023-05-16T15:20:39;17.80;86.80
30186;DHT22;31152;49.190;8.122;2023-05-16T15:23:06;17.80;83.80
30186;DHT22;31152;49.190;8.122;2023-05-16T15:25:36;17.80;81.80
30186;DHT22;31152;49.190;8.122;2023-05-16T15:28:03;17.90;82.30
30186;DHT22;31152;49.190;8.122;2023-05-16T15:30:39;17.90;79.30
30186;DHT22;31152;49.190;8.122;2023-05-16T15:33:11;18.00;81.60
30186;DHT22;31152;49.190;8.122;2023-05-16T15:35:42;18.30;80.00
30186;DHT22;31152;49.190;8.122;2023-05-16T15:38:11;18.40;77.90
30186;DHT22;31152;49.190;8.122;2023-05-16T15:40:40;18.50;77.20
30186;DHT22;31152;49.190;8.122;2023-05-16T15:43:07;18.60;74.30
30186;DHT22;31152;49.190;8.122;2023-05-16T15:45:34;18.50;72.70
30186;DHT22;31152;49.190;8.122;2023-05-16T15:48:05;18.60;70.30
30186;DHT22;31152;49.190;8.122;2023-05-16T15:50:33;18.70;71.00
30186;DHT22;31152;49.190;8.122;2023-05-16T15:53:00;18.80;71.70
30186;DHT22;31152;49.190;8.122;2023-05-16T15:55:27;18.90;69.90
30186;DHT22;31152;49.190;8.122;2023-05-16T15:57:55;18.90;68.00